Portada
METAR-TAF:

METAR-TAF

Aeroports :

Tela, Hondures

latitud: 15-43N, longitud: 087-29W, altitud: 3 m

Observació

L'informe es va fer fa 6 hores i 30 minuts, a les 00:00 UTC
Vent 2 kt amb direcció variable
Temperatura 28°C
Humitat 89%
Pressió 1008 hPa
Visibilitat 10 km o més
Núvols disperses a una alçada de 2600 ft, Cumulonimbus.
Cel ennuvolat a una alçada de 9000 ft

METAR: MHTE 300000Z VRB02KT 9999 SCT026CB BKN090 28/26 Q1008 CB NE E

Hora: 00:30 (06:30 UTC)


TAF: manca

Observacions i pronòstics meteorològics de més de 4000 aeroports (METAR i TAF).

Les estacions disponibles són els punts grocs i vermells al mapa.

Posi el ratolí al punt desitjat per veure el nom de l'estació.

Feu clic per veure les observacions i els pronòstics meteorològics.

Per canviar el mapa: feu clic els botons verds amb una creu de color negre per apropar; al botó verd amb un guió per allunyar la imatge; o en les fletxes verdes per a mapes adjacents.


METAR-TAF: